Providence, Illinois
Current Conditions -  °F | °C
As of 9:15 AM on Wednesday 22 Oct 2014 (Local Time) from KC75 Reporting Station
Haze Haze  
Wind Chill: 38°   Ceiling: 100
Heat Index: 38°   Visibility: 1.5mi
Dew Point: 38°   Wind: 0mph
Humidity: 97%   Direction: NA
Pressure: 30.36"   Gusts: NA
Location:  41.2776°N, 89.5099°W
Report Text: KC75 221415Z AUTO 00000KT 1 1/2SM BR OVC001 04/03 A3036 RMK AO2 T00360032
Loading
Personal Weather Stations






























Interactive Weather Map New forecast layout! Learn more

10-Day Weather Forecast

Advertisements
Track Severe Weather on mobile